createdAt,value
2023-05-05T00:00:55.727Z,99723.22
2023-05-05T00:06:51.926Z,99735.88
2023-05-05T00:09:20.139Z,99718.25
2023-05-05T00:11:47.891Z,99721.66
2023-05-05T00:14:15.768Z,99723.62
2023-05-05T00:16:44.608Z,99722.62
2023-05-05T00:19:15.887Z,99730.78
2023-05-05T00:21:46.573Z,99723.25
2023-05-05T00:24:14.359Z,99720.56
2023-05-05T00:26:43.651Z,99711.91
2023-05-05T00:29:18.629Z,99709.81
2023-05-05T00:31:50.498Z,99720.59
2023-05-05T00:34:19.551Z,99711.06
2023-05-05T00:36:48.678Z,99718.56
2023-05-05T00:39:31.095Z,99710.87
2023-05-05T00:42:02.480Z,99710.72
2023-05-05T00:44:49.686Z,99719.78
2023-05-05T00:47:24.901Z,99718.87
2023-05-05T00:50:01.970Z,99716.34
2023-05-05T00:52:44.874Z,99719.03
2023-05-05T00:55:20.722Z,99716.44
2023-05-05T00:57:48.855Z,99706.09
2023-05-05T01:00:17.131Z,99703.50
2023-05-05T01:02:45.077Z,99699.97
2023-05-05T01:05:13.964Z,99705.19
2023-05-05T01:07:48.700Z,99696.56
2023-05-05T01:10:28.850Z,99704.37
2023-05-05T01:13:19.007Z,99702.59
2023-05-05T01:16:15.880Z,99702.50
2023-05-05T01:18:53.354Z,99689.34
2023-05-05T01:21:55.723Z,99694.78
2023-05-05T01:24:53.082Z,99698.22
2023-05-05T01:27:31.642Z,99691.31
2023-05-05T01:30:35.162Z,99692.25
2023-05-05T01:33:07.967Z,99697.47
2023-05-05T01:35:45.233Z,99702.66
2023-05-05T01:38:14.372Z,99691.38
2023-05-05T01:40:45.610Z,99693.09
2023-05-05T01:43:14.106Z,99689.63
2023-05-05T01:45:56.943Z,99694.00
2023-05-05T01:48:33.476Z,99687.94
2023-05-05T01:51:04.630Z,99683.59
2023-05-05T01:53:46.070Z,99693.12
2023-05-05T01:56:25.735Z,99693.97
2023-05-05T01:59:00.794Z,99690.53
2023-05-05T02:01:39.385Z,99694.00
2023-05-05T02:04:23.012Z,99687.94
2023-05-05T02:06:54.297Z,99686.19
2023-05-05T02:09:43.789Z,99684.47
2023-05-05T02:12:25.388Z,99686.19
2023-05-05T02:14:55.652Z,99683.59
2023-05-05T02:17:51.335Z,99687.94
2023-05-05T02:20:37.329Z,99686.13
2023-05-05T02:23:21.321Z,99684.31
2023-05-05T02:25:54.773Z,99686.00
2023-05-05T02:28:53.720Z,99683.28
2023-05-05T02:32:00.062Z,99680.81
2023-05-05T02:34:28.631Z,99681.00
2023-05-05T02:37:01.952Z,99677.28
2023-05-05T02:40:01.301Z,99674.75
2023-05-05T02:42:30.328Z,99687.00
2023-05-05T02:44:59.616Z,99680.84
2023-05-05T02:47:38.007Z,99678.25
2023-05-05T02:50:07.267Z,99684.44
2023-05-05T02:52:36.712Z,99680.03
2023-05-05T02:55:07.359Z,99683.47
2023-05-05T02:58:21.254Z,99681.00
2023-05-05T03:01:28.512Z,99677.53
2023-05-05T03:04:01.184Z,99683.59
2023-05-05T03:06:32.170Z,99677.50
2023-05-05T03:09:09.103Z,99683.59
2023-05-05T03:12:03.461Z,99680.13
2023-05-05T03:14:46.083Z,99684.47
2023-05-05T03:17:20.039Z,99681.00
2023-05-05T03:19:54.333Z,99674.94
2023-05-05T03:22:22.879Z,99675.78
2023-05-05T03:25:12.957Z,99672.31
2023-05-05T03:27:45.971Z,99675.78
2023-05-05T03:30:14.900Z,99676.62
2023-05-05T03:32:49.180Z,99679.28
2023-05-05T03:35:19.450Z,99680.13
2023-05-05T03:37:50.538Z,99678.41
2023-05-05T03:40:18.616Z,99683.59
2023-05-05T03:42:48.526Z,99681.00
2023-05-05T03:45:23.256Z,99675.81
2023-05-05T03:48:01.207Z,99686.19
2023-05-05T03:51:01.912Z,99681.03
2023-05-05T03:53:39.732Z,99686.09
2023-05-05T03:56:12.746Z,99687.94
2023-05-05T04:01:23.792Z,99696.59
2023-05-05T04:03:53.999Z,99702.63
2023-05-05T04:06:32.382Z,99700.91
2023-05-05T04:09:05.903Z,99703.44
2023-05-05T04:11:34.287Z,99696.47
2023-05-05T04:14:23.943Z,99705.16
2023-05-05T04:16:55.477Z,99701.69
2023-05-05T04:19:44.206Z,99696.31
2023-05-05T04:22:12.349Z,99699.28
2023-05-05T04:24:42.175Z,99693.63
2023-05-05T04:27:13.457Z,99704.56
2023-05-05T04:29:42.302Z,99701.38
2023-05-05T04:32:12.782Z,99700.91
2023-05-05T04:35:01.433Z,99702.50
2023-05-05T04:37:33.255Z,99708.44
2023-05-05T04:40:01.411Z,99706.78
2023-05-05T04:42:32.922Z,99702.25
2023-05-05T04:45:01.186Z,99708.44
2023-05-05T04:47:45.733Z,99709.44
2023-05-05T04:50:24.616Z,99710.22
2023-05-05T04:53:08.694Z,99716.06
2023-05-05T04:55:40.601Z,99718.19
2023-05-05T04:58:21.794Z,99718.50
2023-05-05T05:00:57.753Z,99717.47
2023-05-05T05:06:44.363Z,99715.09
2023-05-05T05:12:43.320Z,99723.97
2023-05-05T05:15:46.531Z,99727.72
2023-05-05T05:21:32.020Z,99730.91
2023-05-05T05:27:27.673Z,99725.78
2023-05-05T05:30:03.607Z,99728.97
2023-05-05T05:32:53.604Z,99736.47
2023-05-05T05:35:22.135Z,99732.75
2023-05-05T05:37:53.365Z,99741.75
2023-05-05T05:40:21.627Z,99741.81
2023-05-05T05:42:50.780Z,99751.41
2023-05-05T05:45:18.639Z,99755.41
2023-05-05T05:47:47.474Z,99743.38
2023-05-05T05:50:15.537Z,99739.50
2023-05-05T05:52:43.634Z,99746.56
2023-05-05T05:57:57.520Z,99744.03
2023-05-05T06:00:30.939Z,99738.62
2023-05-05T06:03:02.420Z,99745.25
2023-05-05T06:05:44.727Z,99740.75
2023-05-05T06:08:15.990Z,99748.81
2023-05-05T06:11:25.918Z,99739.84
2023-05-05T06:14:06.978Z,99749.75
2023-05-05T06:16:41.486Z,99750.13
2023-05-05T06:19:12.686Z,99741.69
2023-05-05T06:21:43.627Z,99748.13
2023-05-05T06:24:28.566Z,99742.09
2023-05-05T06:26:57.096Z,99735.44
2023-05-05T06:29:26.393Z,99739.81
2023-05-05T06:31:58.526Z,99738.94
2023-05-05T06:34:27.258Z,99736.19
2023-05-05T06:36:55.843Z,99732.63
2023-05-05T06:39:26.730Z,99734.94
2023-05-05T06:41:54.958Z,99729.59
2023-05-05T06:44:22.802Z,99733.47
2023-05-05T06:46:51.936Z,99731.12
2023-05-05T06:49:20.200Z,99727.22
2023-05-05T06:51:49.630Z,99728.91
2023-05-05T06:54:17.914Z,99734.00
2023-05-05T06:56:46.909Z,99730.09
2023-05-05T06:59:14.650Z,99736.41
2023-05-05T07:01:42.706Z,99733.22
2023-05-05T07:04:11.604Z,99727.78
2023-05-05T07:06:46.654Z,99733.72
2023-05-05T07:09:17.213Z,99734.59
2023-05-05T07:11:46.654Z,99739.03
2023-05-05T07:14:18.972Z,99743.50
2023-05-05T07:16:46.870Z,99735.63
2023-05-05T07:19:17.952Z,99733.75
2023-05-05T07:21:47.549Z,99739.84
2023-05-05T07:24:15.724Z,99732.22
2023-05-05T07:26:53.369Z,99738.06
2023-05-05T07:29:21.558Z,99733.19
2023-05-05T07:31:52.966Z,99736.06
2023-05-05T07:34:21.205Z,99739.88
2023-05-05T07:36:52.161Z,99742.19
2023-05-05T07:39:24.167Z,99741.31
2023-05-05T07:41:57.192Z,99736.00
2023-05-05T07:44:24.981Z,99737.50
2023-05-05T07:46:53.261Z,99742.06
2023-05-05T07:49:22.177Z,99742.69
2023-05-05T07:51:50.558Z,99735.50
2023-05-05T07:54:25.870Z,99735.72
2023-05-05T07:56:55.543Z,99739.75
2023-05-05T07:59:27.753Z,99740.22
2023-05-05T08:01:57.199Z,99744.34
2023-05-05T08:04:25.660Z,99744.97
2023-05-05T08:07:13.187Z,99740.44
2023-05-05T08:09:44.116Z,99740.66
2023-05-05T08:12:15.879Z,99743.34
2023-05-05T08:14:44.816Z,99739.59
2023-05-05T08:17:16.542Z,99732.69
2023-05-05T08:19:48.291Z,99734.44
2023-05-05T08:22:16.294Z,99739.69
2023-05-05T08:24:59.912Z,99735.59
2023-05-05T08:27:35.502Z,99738.06
2023-05-05T08:30:04.214Z,99744.66
2023-05-05T08:32:34.852Z,99731.88
2023-05-05T08:35:23.673Z,99733.13
2023-05-05T08:37:59.668Z,99740.88
2023-05-05T08:40:43.773Z,99737.69
2023-05-05T08:43:12.502Z,99744.50
2023-05-05T08:45:42.745Z,99734.03
2023-05-05T08:48:19.406Z,99727.97
2023-05-05T08:50:57.345Z,99730.97
2023-05-05T08:53:34.336Z,99725.03
2023-05-05T08:56:04.324Z,99728.69
2023-05-05T08:58:32.520Z,99735.50
2023-05-05T09:01:02.607Z,99738.81
2023-05-05T09:03:33.053Z,99730.66
2023-05-05T09:09:04.150Z,99721.34
2023-05-05T09:11:39.856Z,99720.75
2023-05-05T09:14:15.346Z,99723.38
2023-05-05T09:16:48.614Z,99713.81
2023-05-05T09:19:23.571Z,99720.94
2023-05-05T09:22:12.133Z,99716.75
2023-05-05T09:24:59.568Z,99713.88
2023-05-05T09:28:07.748Z,99707.78
2023-05-05T09:30:39.841Z,99704.66
2023-05-05T09:33:33.680Z,99705.66
2023-05-05T09:40:15.063Z,99691.25
2023-05-05T09:43:18.818Z,99700.09
2023-05-05T09:49:04.405Z,99697.63
2023-05-05T09:51:56.344Z,99700.03
2023-05-05T09:54:29.341Z,99690.75
2023-05-05T09:57:01.812Z,99689.19
2023-05-05T09:59:29.528Z,99679.38
2023-05-05T10:02:13.751Z,99686.75
2023-05-05T10:04:44.338Z,99681.28
2023-05-05T10:07:27.708Z,99678.50
2023-05-05T10:09:58.623Z,99679.78
2023-05-05T10:12:26.780Z,99675.22
2023-05-05T10:14:55.248Z,99672.25
2023-05-05T10:17:27.162Z,99675.09
2023-05-05T10:19:59.230Z,99674.75
2023-05-05T10:22:41.095Z,99681.50
2023-05-05T10:25:10.862Z,99679.34
2023-05-05T10:27:49.346Z,99669.44
2023-05-05T10:30:27.021Z,99671.63
2023-05-05T10:33:14.128Z,99670.97
2023-05-05T10:35:52.130Z,99656.13
2023-05-05T10:38:27.653Z,99661.72
2023-05-05T10:40:57.913Z,99661.16
2023-05-05T10:43:30.979Z,99647.38
2023-05-05T10:45:59.021Z,99649.00
2023-05-05T10:48:41.159Z,99650.47
2023-05-05T10:51:15.432Z,99645.31
2023-05-05T10:54:13.530Z,99641.03
2023-05-05T10:56:42.073Z,99641.69
2023-05-05T10:59:32.105Z,99638.66
2023-05-05T11:02:01.063Z,99628.91
2023-05-05T11:04:33.781Z,99632.12
2023-05-05T11:07:16.211Z,99631.09
2023-05-05T11:10:07.753Z,99625.97
2023-05-05T11:12:54.493Z,99625.66
2023-05-05T11:15:52.780Z,99619.25
2023-05-05T11:18:37.302Z,99613.13
2023-05-05T11:21:20.047Z,99616.34
2023-05-05T11:23:50.263Z,99607.84
2023-05-05T11:26:21.546Z,99611.34
2023-05-05T11:29:01.762Z,99608.28
2023-05-05T11:31:30.871Z,99603.66
2023-05-05T11:34:20.850Z,99604.75
2023-05-05T11:36:57.751Z,99600.34
2023-05-05T11:39:31.680Z,99599.91
2023-05-05T11:42:13.009Z,99596.97
2023-05-05T11:44:46.991Z,99583.19
2023-05-05T11:47:17.068Z,99580.97
2023-05-05T11:49:50.197Z,99578.66
2023-05-05T11:55:15.420Z,99578.31
2023-05-05T11:57:59.636Z,99575.53
2023-05-05T12:00:37.901Z,99580.25
2023-05-05T12:03:07.289Z,99573.84
2023-05-05T12:05:37.220Z,99571.75
2023-05-05T12:08:12.190Z,99570.22
2023-05-05T12:10:42.027Z,99567.91
2023-05-05T12:13:22.034Z,99559.41
2023-05-05T12:15:51.702Z,99559.91
2023-05-05T12:18:20.847Z,99559.78
2023-05-05T12:20:49.220Z,99556.91
2023-05-05T12:23:19.532Z,99557.63
2023-05-05T12:25:47.506Z,99554.16
2023-05-05T12:28:15.710Z,99551.06
2023-05-05T12:30:45.217Z,99555.66
2023-05-05T12:33:12.930Z,99552.66
2023-05-05T12:35:43.659Z,99552.78
2023-05-05T12:38:14.496Z,99559.41
2023-05-05T12:40:45.119Z,99548.28
2023-05-05T12:43:32.235Z,99547.59
2023-05-05T12:46:10.347Z,99543.41
2023-05-05T12:48:48.394Z,99545.13
2023-05-05T12:51:18.573Z,99538.22
2023-05-05T12:53:50.759Z,99542.38
2023-05-05T12:56:38.765Z,99533.69
2023-05-05T12:59:07.895Z,99533.44
2023-05-05T13:01:36.601Z,99526.97
2023-05-05T13:04:07.940Z,99529.94
2023-05-05T13:06:36.360Z,99523.34
2023-05-05T13:09:05.142Z,99520.97
2023-05-05T13:11:37.529Z,99522.06
2023-05-05T13:14:08.760Z,99507.44
2023-05-05T13:17:35.934Z,99509.31
2023-05-05T13:20:10.346Z,99500.94
2023-05-05T13:26:26.224Z,99499.88
2023-05-05T13:29:49.526Z,99491.91
2023-05-05T13:33:39.255Z,99490.22
2023-05-05T13:36:27.800Z,99482.97
2023-05-05T14:02:27.869Z,99460.56
2023-05-05T14:05:57.363Z,99462.34
2023-05-05T14:12:43.570Z,99460.34
2023-05-05T14:16:09.892Z,99454.66
2023-05-05T14:22:31.154Z,99460.84
2023-05-05T14:32:30.279Z,99449.06
2023-05-05T14:36:03.612Z,99445.34
2023-05-05T14:40:04.272Z,99440.41
2023-05-05T14:46:01.352Z,99442.13
2023-05-05T14:48:58.245Z,99442.84
2023-05-05T15:03:39.027Z,99429.59
2023-05-05T15:11:14.173Z,99433.81
2023-05-05T15:21:14.448Z,99439.75
2023-05-05T15:29:05.456Z,99432.88
2023-05-05T15:34:42.319Z,99423.34
2023-05-05T15:37:16.617Z,99425.66
2023-05-05T15:39:44.703Z,99417.47
2023-05-05T15:42:33.745Z,99419.34
2023-05-05T15:45:18.200Z,99419.94
2023-05-05T15:50:49.918Z,99415.31
2023-05-05T15:53:45.255Z,99408.47
2023-05-05T15:56:16.783Z,99415.63
2023-05-05T15:58:49.029Z,99410.69
2023-05-05T16:07:19.793Z,99415.63
2023-05-05T16:09:58.307Z,99404.16
2023-05-05T16:12:32.489Z,99414.66
2023-05-05T16:15:01.056Z,99396.88
2023-05-05T16:17:41.650Z,99395.00
2023-05-05T16:20:31.819Z,99400.31
2023-05-05T16:23:04.157Z,99400.38
2023-05-05T16:28:18.960Z,99399.22
2023-05-05T16:31:29.237Z,99397.94
2023-05-05T16:34:26.239Z,99400.34
2023-05-05T16:37:02.878Z,99403.81
2023-05-05T16:40:31.515Z,99397.66
2023-05-05T16:43:30.360Z,99396.06
2023-05-05T16:53:00.660Z,99396.47
2023-05-05T16:55:42.466Z,99387.59
2023-05-05T16:58:17.051Z,99395.75
2023-05-05T17:07:20.087Z,99395.94
2023-05-05T17:09:47.968Z,99394.91
2023-05-05T17:13:16.618Z,99398.75
2023-05-05T17:20:18.590Z,99397.00
2023-05-05T17:27:36.431Z,99398.97
2023-05-05T17:30:27.657Z,99398.09
2023-05-05T17:33:08.601Z,99401.59
2023-05-05T17:36:24.150Z,99401.31
2023-05-05T17:46:57.240Z,99402.97
2023-05-05T18:05:06.630Z,99408.84
2023-05-05T18:13:27.340Z,99404.63
2023-05-05T18:17:05.090Z,99411.53
2023-05-05T18:31:10.296Z,99427.41
2023-05-05T18:36:33.833Z,99429.97
2023-05-05T18:39:24.340Z,99429.94
2023-05-05T18:42:01.590Z,99425.22
2023-05-05T18:47:41.802Z,99434.38
2023-05-05T18:59:05.179Z,99438.50
2023-05-05T19:14:50.036Z,99440.97
2023-05-05T19:46:03.776Z,99452.22
2023-05-05T19:50:23.317Z,99461.81
2023-05-05T19:57:02.564Z,99440.00
2023-05-05T20:00:15.429Z,99445.84
2023-05-05T20:02:56.841Z,99442.75
2023-05-05T20:06:06.494Z,99443.75
2023-05-05T20:09:06.714Z,99447.13
2023-05-05T20:13:05.185Z,99441.09
2023-05-05T20:17:10.291Z,99445.37
2023-05-05T20:20:46.541Z,99448.41
2023-05-05T20:28:06.640Z,99440.59
2023-05-05T20:32:08.900Z,99440.91
2023-05-05T20:43:56.462Z,99431.78
2023-05-05T20:46:46.823Z,99433.12
2023-05-05T20:49:14.588Z,99429.50
2023-05-05T20:51:42.675Z,99427.59
2023-05-05T20:55:19.758Z,99432.13
2023-05-05T21:02:21.235Z,99428.78
2023-05-05T21:09:40.130Z,99429.84
2023-05-05T21:13:34.661Z,99434.75
2023-05-05T21:17:13.489Z,99423.84
2023-05-05T21:20:43.344Z,99424.84
2023-05-05T21:23:30.879Z,99426.62
2023-05-05T21:30:13.590Z,99424.09
2023-05-05T21:37:21.419Z,99411.19
2023-05-05T21:39:49.830Z,99408.59
2023-05-05T21:43:05.529Z,99398.72
2023-05-05T21:45:50.345Z,99394.84
2023-05-05T21:53:10.767Z,99386.91
2023-05-05T21:59:43.695Z,99383.66
2023-05-05T22:06:45.325Z,99385.81
2023-05-05T22:09:39.842Z,99388.88
2023-05-05T22:16:27.414Z,99390.00
2023-05-05T22:20:03.862Z,99397.44
2023-05-05T22:30:25.519Z,99394.75
2023-05-05T22:32:54.425Z,99400.25
2023-05-05T22:35:29.038Z,99402.53
2023-05-05T22:38:28.510Z,99401.94
2023-05-05T22:44:57.701Z,99401.94
2023-05-05T22:51:30.439Z,99413.25
2023-05-05T22:55:15.710Z,99416.56
2023-05-05T22:57:52.044Z,99418.56
2023-05-05T23:01:19.717Z,99415.91
2023-05-05T23:05:13.862Z,99412.34
2023-05-05T23:07:41.954Z,99407.97
2023-05-05T23:10:09.930Z,99410.62
2023-05-05T23:13:08.551Z,99402.84
2023-05-05T23:16:34.761Z,99402.91
2023-05-05T23:20:03.099Z,99403.88
2023-05-05T23:23:09.596Z,99398.75
2023-05-05T23:26:18.123Z,99393.97
2023-05-05T23:29:53.908Z,99392.44
2023-05-05T23:32:43.357Z,99390.97
2023-05-05T23:36:55.649Z,99389.97
2023-05-05T23:40:48.766Z,99387.31
2023-05-05T23:46:50.062Z,99389.16
2023-05-05T23:52:30.301Z,99385.50
2023-05-05T23:55:22.229Z,99388.12
